Time;durP1;ratioP1;P1;durP2;ratioP2;P2;SDS_P1;SDS_P2;PMS_P1;PMS_P2;Temp;Humidity;BMP_temperature;BMP_pressure;BME280_temperature;BME280_humidity;BME280_pressure;Samples;Min_cycle;Max_cycle;Signal;HPM_P1;HPM_P2
2022/01/10 00:00:08;;;;;;;;;;;;;;;-1.40;100.00;101106.16;4968456;28;19930;-74
2022/01/10 00:02:33;;;;;;;;;;;;;;;-1.43;100.00;101101.75;4964605;28;19929;-74
2022/01/10 00:04:59;;;;;;;;;;;;;;;-1.46;100.00;101110.72;4963444;28;19919;-75
2022/01/10 00:07:24;;;;;;;;;;;;;;;-1.51;100.00;101114.53;4961330;28;19918;-74
2022/01/10 00:09:49;;;;;;;;;;;;;;;-1.59;100.00;101129.03;4948337;28;19934;-75
2022/01/10 00:12:14;;;;;;;;;;;;;;;-1.65;100.00;101129.41;4983565;28;19926;-75
2022/01/10 00:14:40;;;;;;;;;;;;;;;-1.58;100.00;101134.94;4960837;28;19930;-74
2022/01/10 00:17:05;;;;;;;;;;;;;;;-1.59;100.00;101139.13;4960905;28;19937;-74
2022/01/10 00:19:30;;;;;;;;;;;;;;;-1.62;100.00;101146.44;4963623;28;19934;-74
2022/01/10 00:21:56;;;;;;;;;;;;;;;-1.62;100.00;101148.97;4963466;28;19966;-74
2022/01/10 00:24:21;;;;;;;;;;;;;;;-1.67;100.00;101148.59;4962705;28;19993;-74
2022/01/10 00:26:47;;;;;;;;;;;;;;;-1.65;100.00;101148.72;4962832;28;20337;-74
2022/01/10 00:29:12;;;;;;;;;;;;;;;-1.64;100.00;101155.50;4964178;28;19934;-74
2022/01/10 00:31:37;;;;;;;;;;;;;;;-1.65;100.00;101147.06;4964189;28;19930;-74
2022/01/10 00:34:03;;;;;;;;;;;;;;;-1.64;100.00;101153.00;4961198;28;19981;-73
2022/01/10 00:36:28;;;;;;;;;;;;;;;-1.67;100.00;101151.13;4964442;28;19922;-74
2022/01/10 00:38:53;;;;;;;;;;;;;;;-1.73;100.00;101147.22;4963284;28;20762;-75
2022/01/10 00:41:18;;;;;;;;;;;;;;;-1.76;100.00;101152.00;4965847;28;19937;-74
2022/01/10 00:43:46;;;;;;;;;;;;;;;-1.81;100.00;101154.16;4964812;28;20597;-74
2022/01/10 00:46:12;;;;;;;;;;;;;;;-1.80;100.00;101160.09;4966941;28;19922;-74
2022/01/10 00:48:38;;;;;;;;;;;;;;;-1.82;100.00;101162.50;4958526;28;20665;-74
2022/01/10 00:51:03;;;;;;;;;;;;;;;-1.86;100.00;101162.97;4966871;28;20305;-74
2022/01/10 00:53:28;;;;;;;;;;;;;;;-1.86;100.00;101165.50;4964195;28;20788;-74
2022/01/10 00:55:54;;;;;;;;;;;;;;;-1.86;100.00;101168.03;4958338;28;20038;-74
2022/01/10 00:58:19;;;;;;;;;;;;;;;-1.87;100.00;101170.44;4968380;28;19930;-74
2022/01/10 01:00:44;;;;;;;;;;;;;;;-1.87;100.00;101172.94;4962123;28;19922;-74
2022/01/10 01:03:10;;;;;;;;;;;;;;;-1.85;100.00;101189.06;4965306;28;20038;-74
2022/01/10 01:05:39;;;;;;;;;;;;;;;-1.84;100.00;101195.88;4983138;28;19918;-74
2022/01/10 01:08:07;;;;;;;;;;;;;;;-1.86;100.00;101199.91;4958109;28;19930;-74
2022/01/10 01:13:06;;;;;;;;;;;;;;;-1.87;100.00;101215.78;4966079;28;19929;-74
2022/01/10 01:15:34;;;;;;;;;;;;;;;-1.92;100.00;101213.78;4961146;28;19922;-74
2022/01/10 01:26:04;;;;;;;;;;;;;;;-1.98;100.00;101235.94;4965491;28;20359;-73
2022/01/10 01:28:30;;;;;;;;;;;;;;;-2.02;100.00;101225.47;4960767;28;19918;-73
2022/01/10 01:30:55;;;;;;;;;;;;;;;-2.04;100.00;101237.94;4960532;28;19977;-74
2022/01/10 01:33:21;;;;;;;;;;;;;;;-2.03;100.00;101229.63;4962505;28;19918;-74
2022/01/10 01:35:47;;;;;;;;;;;;;;;-2.01;100.00;101234.78;4964666;28;19957;-74
2022/01/10 01:38:12;;;;;;;;;;;;;;;-2.02;100.00;101243.09;4964612;28;19919;-75
2022/01/10 01:40:44;;;;;;;;;;;;;;;-2.06;100.00;101254.59;4958745;28;19918;-71
2022/01/10 01:43:10;;;;;;;;;;;;;;;-2.04;100.00;101252.19;4962929;28;20355;-74
2022/01/10 01:45:36;;;;;;;;;;;;;;;-2.00;100.00;101264.28;4962042;28;19976;-74
2022/01/10 01:48:02;;;;;;;;;;;;;;;-1.99;100.00;101264.41;4963187;28;20453;-74
2022/01/10 01:50:27;;;;;;;;;;;;;;;-1.97;100.00;101267.06;4960475;28;19926;-73
2022/01/10 01:52:52;;;;;;;;;;;;;;;-1.97;100.00;101282.19;4965309;28;19926;-73
2022/01/10 01:55:18;;;;;;;;;;;;;;;-2.00;100.00;101292.91;4977855;28;20475;-74
2022/01/10 01:57:43;;;;;;;;;;;;;;;-2.01;100.00;101295.25;4963447;28;20606;-74
2022/01/10 02:00:08;;;;;;;;;;;;;;;-2.02;100.00;101296.91;4963196;28;19922;-74
2022/01/10 02:02:34;;;;;;;;;;;;;;;-2.01;100.00;101295.25;4962716;28;19965;-74
2022/01/10 02:04:59;;;;;;;;;;;;;;;-2.00;100.00;101290.38;4962840;28;19933;-73
2022/01/10 02:07:25;;;;;;;;;;;;;;;-1.96;100.00;101288.97;4961769;28;19919;-74
2022/01/10 02:09:51;;;;;;;;;;;;;;;-1.92;100.00;101293.53;4959542;28;20243;-74
2022/01/10 02:12:16;;;;;;;;;;;;;;;-1.90;100.00;101297.06;4965694;28;20402;-74
2022/01/10 02:14:42;;;;;;;;;;;;;;;-1.92;100.00;101293.53;4961257;28;19922;-74
2022/01/10 02:17:07;;;;;;;;;;;;;;;-1.93;100.00;101301.84;4961781;28;20375;-73
2022/01/10 02:19:32;;;;;;;;;;;;;;;-1.92;100.00;101306.13;4959388;28;19934;-74
2022/01/10 02:21:58;;;;;;;;;;;;;;;-1.85;100.00;101303.38;4961130;28;19938;-74
2022/01/10 02:24:23;;;;;;;;;;;;;;;-1.78;100.00;101308.19;4962633;28;19992;-74
2022/01/10 02:26:50;;;;;;;;;;;;;;;-1.71;100.00;101328.09;4961119;28;19930;-73
2022/01/10 02:29:15;;;;;;;;;;;;;;;-1.72;100.00;101315.38;4955023;28;20387;-73
2022/01/10 02:31:40;;;;;;;;;;;;;;;-1.71;100.00;101324.69;4981138;28;19933;-74
2022/01/10 02:34:06;;;;;;;;;;;;;;;-1.73;100.00;101336.31;4964023;28;19929;-73
2022/01/10 02:36:32;;;;;;;;;;;;;;;-1.72;100.00;101331.38;4961724;28;19933;-74
2022/01/10 02:38:58;;;;;;;;;;;;;;;-1.66;100.00;101343.63;4961036;28;20383;-74
2022/01/10 02:41:25;;;;;;;;;;;;;;;-1.64;100.00;101347.16;4964825;28;20367;-74
2022/01/10 02:43:52;;;;;;;;;;;;;;;-1.59;100.00;101350.94;4959905;28;20446;-74
2022/01/10 02:46:17;;;;;;;;;;;;;;;-1.55;100.00;101347.06;4964653;28;19926;-74
2022/01/10 02:48:42;;;;;;;;;;;;;;;-1.52;100.00;101348.16;4968022;28;20493;-74
2022/01/10 02:51:08;;;;;;;;;;;;;;;-1.47;100.00;101364.56;4952932;28;19977;-74
2022/01/10 02:53:33;;;;;;;;;;;;;;;-1.43;100.00;101366.63;4966511;28;19930;-74
2022/01/10 02:55:58;;;;;;;;;;;;;;;-1.38;100.00;101377.09;4967935;28;20008;-73
2022/01/10 02:58:24;;;;;;;;;;;;;;;-1.33;100.00;101379.97;4966710;28;19930;-74
2022/01/10 03:00:49;;;;;;;;;;;;;;;-1.27;100.00;101383.03;4964657;28;19931;-74
2022/01/10 03:03:15;;;;;;;;;;;;;;;-1.20;100.00;101385.31;4964294;28;20013;-74
2022/01/10 03:05:40;;;;;;;;;;;;;;;-1.13;100.00;101382.53;4961782;28;19922;-74
2022/01/10 03:08:05;;;;;;;;;;;;;;;-1.08;100.00;101382.16;4967169;28;19957;-74
2022/01/10 03:10:31;;;;;;;;;;;;;;;-1.05;100.00;101394.13;4965180;28;20490;-74
2022/01/10 03:12:57;;;;;;;;;;;;;;;-1.03;100.00;101396.78;4963491;28;20006;-74
2022/01/10 03:15:22;;;;;;;;;;;;;;;-0.99;100.00;101393.75;4950523;28;20290;-74
2022/01/10 03:17:47;;;;;;;;;;;;;;;-0.97;100.00;101399.81;4964550;28;19926;-74
2022/01/10 03:20:13;;;;;;;;;;;;;;;-0.94;100.00;101400.06;4980963;28;20017;-74
2022/01/10 03:22:38;;;;;;;;;;;;;;;-0.93;100.00;101407.75;4966962;28;19928;-74
2022/01/10 03:25:04;;;;;;;;;;;;;;;-0.93;100.00;101412.81;4966126;28;19922;-73
2022/01/10 03:27:30;;;;;;;;;;;;;;;-0.94;100.00;101412.69;4963053;28;19919;-73
2022/01/10 03:29:55;;;;;;;;;;;;;;;-0.95;100.00;101411.81;4963324;28;19922;-74
2022/01/10 03:32:20;;;;;;;;;;;;;;;-0.97;100.00;101422.53;4963134;28;19932;-73
2022/01/10 03:34:45;;;;;;;;;;;;;;;-0.95;100.00;101424.44;4963764;28;19922;-74
2022/01/10 03:37:11;;;;;;;;;;;;;;;-0.94;100.00;101425.31;4962280;28;19926;-74
2022/01/10 03:39:36;;;;;;;;;;;;;;;-0.92;100.00;101426.31;4971911;28;20009;-74
2022/01/10 03:42:02;;;;;;;;;;;;;;;-0.91;100.00;101430.59;4965697;28;19922;-74
2022/01/10 03:44:28;;;;;;;;;;;;;;;-0.89;100.00;101439.22;4966732;28;19930;-74
2022/01/10 03:46:53;;;;;;;;;;;;;;;-0.89;100.00;101449.31;4965449;28;20485;-75
2022/01/10 03:49:18;;;;;;;;;;;;;;;-0.88;100.00;101451.94;4961973;28;19922;-73
2022/01/10 03:51:43;;;;;;;;;;;;;;;-0.87;100.00;101457.88;4966448;28;19970;-73
2022/01/10 03:54:09;;;;;;;;;;;;;;;-0.86;100.00;101467.22;4965805;28;19929;-73
2022/01/10 03:56:34;;;;;;;;;;;;;;;-0.86;100.00;101470.63;4960834;28;19922;-74
2022/01/10 03:58:59;;;;;;;;;;;;;;;-0.83;100.00;101472.53;4967116;28;19926;-74
2022/01/10 04:01:25;;;;;;;;;;;;;;;-0.81;100.00;101476.06;4964292;28;19948;-74
2022/01/10 04:03:52;;;;;;;;;;;;;;;-0.74;100.00;101480.84;4966010;28;20299;-74
2022/01/10 04:06:17;;;;;;;;;;;;;;;-0.75;100.00;101479.09;4964694;28;20300;-74
2022/01/10 04:08:42;;;;;;;;;;;;;;;-0.81;100.00;101479.47;4963847;28;20068;-74
2022/01/10 04:11:07;;;;;;;;;;;;;;;-0.81;100.00;101491.22;4961538;28;19922;-74
2022/01/10 04:13:33;;;;;;;;;;;;;;;-0.82;100.00;101487.81;4960190;28;19922;-74
2022/01/10 04:15:58;;;;;;;;;;;;;;;-0.81;100.00;101493.75;4963303;28;19922;-74
2022/01/10 04:18:24;;;;;;;;;;;;;;;-0.79;100.00;101496.38;4964639;28;19918;-74
2022/01/10 04:20:49;;;;;;;;;;;;;;;-0.73;100.00;101502.81;4965477;28;19934;-74
2022/01/10 04:23:16;;;;;;;;;;;;;;;-0.62;100.00;101506.25;4963738;28;19926;-74
2022/01/10 04:25:41;;;;;;;;;;;;;;;-0.58;100.00;101514.22;4960771;28;19934;-74
2022/01/10 04:28:06;;;;;;;;;;;;;;;-0.55;100.00;101519.53;4963749;28;19922;-74
2022/01/10 04:30:32;;;;;;;;;;;;;;;-0.55;100.00;101511.97;4961873;28;19930;-74
2022/01/10 04:32:59;;;;;;;;;;;;;;;-0.51;100.00;101523.19;4962191;28;19950;-74
2022/01/10 04:35:24;;;;;;;;;;;;;;;-0.53;100.00;101531.41;4964447;28;20400;-74
2022/01/10 04:37:49;;;;;;;;;;;;;;;-0.50;100.00;101529.13;4964040;28;20025;-74
2022/01/10 04:40:15;;;;;;;;;;;;;;;-0.48;100.00;101543.66;4983228;28;19922;-74
2022/01/10 04:42:40;;;;;;;;;;;;;;;-0.50;100.00;101551.84;4965923;28;19930;-74
2022/01/10 04:45:05;;;;;;;;;;;;;;;-0.53;100.00;101554.13;4959795;28;19973;-74
2022/01/10 04:47:31;;;;;;;;;;;;;;;-0.52;100.00;101563.47;4964519;28;19961;-74
2022/01/10 04:52:40;;;;;;;;;;;;;;;-0.52;100.00;101568.53;4964128;28;19937;-74
2022/01/10 04:55:06;;;;;;;;;;;;;;;-0.52;100.00;101579.53;4965197;28;19922;-74
2022/01/10 04:57:31;;;;;;;;;;;;;;;-0.51;100.00;101576.22;4962420;28;19944;-74
2022/01/10 04:59:57;;;;;;;;;;;;;;;-0.43;100.00;101581.91;4960759;28;19936;-73
2022/01/10 05:02:22;;;;;;;;;;;;;;;-0.41;100.00;101599.00;4961804;28;20049;-73
2022/01/10 05:04:47;;;;;;;;;;;;;;;-0.37;100.00;101590.00;4970522;28;19930;-73
2022/01/10 05:07:12;;;;;;;;;;;;;;;-0.36;100.00;101599.38;4958012;28;20032;-73
2022/01/10 05:09:38;;;;;;;;;;;;;;;-0.34;100.00;101601.25;4964401;28;19926;-73
2022/01/10 05:12:03;;;;;;;;;;;;;;;-0.31;100.00;101610.72;4963071;28;19995;-74
2022/01/10 05:14:28;;;;;;;;;;;;;;;-0.28;100.00;101611.00;4966102;28;20399;-74
2022/01/10 05:16:54;;;;;;;;;;;;;;;-0.30;100.00;101615.06;4962479;28;19980;-74
2022/01/10 05:19:19;;;;;;;;;;;;;;;-0.31;100.00;101628.41;4960354;28;20411;-74
2022/01/10 05:21:45;;;;;;;;;;;;;;;-0.34;100.00;101623.13;4962230;28;20009;-73
2022/01/10 05:24:10;;;;;;;;;;;;;;;-0.33;100.00;101633.34;4958806;28;19977;-74
2022/01/10 05:26:35;;;;;;;;;;;;;;;-0.32;100.00;101641.81;4969917;28;19918;-74
2022/01/10 05:29:02;;;;;;;;;;;;;;;-0.28;100.00;101638.81;4966275;28;19937;-75
2022/01/10 05:31:29;;;;;;;;;;;;;;;-0.25;100.00;101630.56;4963133;28;20390;-74
2022/01/10 05:33:54;;;;;;;;;;;;;;;-0.25;100.00;101641.56;4964254;28;20387;-74
2022/01/10 05:36:19;;;;;;;;;;;;;;;-0.22;100.00;101636.78;4961319;28;19946;-74
2022/01/10 05:38:44;;;;;;;;;;;;;;;-0.27;100.00;101643.97;4961834;28;19969;-73
2022/01/10 05:41:10;;;;;;;;;;;;;;;-0.28;100.00;101666.59;4965703;28;20374;-73
2022/01/10 05:43:35;;;;;;;;;;;;;;;-0.31;100.00;101674.78;4958007;28;20044;-74
2022/01/10 05:46:03;;;;;;;;;;;;;;;-0.28;100.00;101674.19;4962650;28;20283;-74
2022/01/10 05:48:30;;;;;;;;;;;;;;;-0.24;100.00;101677.84;4948365;28;20422;-75
2022/01/10 05:50:56;;;;;;;;;;;;;;;-0.26;100.00;101680.25;4961759;28;20738;-74
2022/01/10 05:53:21;;;;;;;;;;;;;;;-0.26;100.00;101690.34;4963291;28;19930;-74
2022/01/10 05:55:47;;;;;;;;;;;;;;;-0.23;100.00;101688.09;4962826;28;19930;-74
2022/01/10 05:58:12;;;;;;;;;;;;;;;-0.22;100.00;101702.50;4962735;28;20358;-74
2022/01/10 06:00:38;;;;;;;;;;;;;;;-0.24;100.00;101693.91;4964933;28;19926;-74
2022/01/10 06:03:03;;;;;;;;;;;;;;;-0.23;100.00;101685.56;4963054;28;19934;-73
2022/01/10 06:05:31;;;;;;;;;;;;;;;-0.21;100.00;101704.25;4958403;28;19924;-74
2022/01/10 06:07:59;;;;;;;;;;;;;;;-0.20;100.00;101703.50;4963472;28;20361;-74
2022/01/10 06:10:25;;;;;;;;;;;;;;;-0.19;100.00;101704.38;4962201;28;20339;-74
2022/01/10 06:12:51;;;;;;;;;;;;;;;-0.16;100.00;101713.13;4961357;28;19937;-74
2022/01/10 06:15:16;;;;;;;;;;;;;;;-0.15;100.00;101714.00;4966941;28;19918;-74
2022/01/10 06:17:41;;;;;;;;;;;;;;;-0.13;100.00;101705.78;4968738;28;20013;-74
2022/01/10 06:20:07;;;;;;;;;;;;;;;-0.12;100.00;101716.78;4972772;28;19922;-74
2022/01/10 06:22:32;;;;;;;;;;;;;;;-0.15;100.00;101730.06;4968899;28;19969;-74
2022/01/10 06:24:57;;;;;;;;;;;;;;;-0.15;100.00;101737.66;4970916;28;19934;-74
2022/01/10 06:27:23;;;;;;;;;;;;;;;-0.15;100.00;101739.28;4964764;28;20379;-72
2022/01/10 06:29:48;;;;;;;;;;;;;;;-0.14;100.00;101747.00;4968151;28;19922;-74
2022/01/10 06:32:14;;;;;;;;;;;;;;;-0.14;100.00;101757.09;4968041;28;20411;-74
2022/01/10 06:34:40;;;;;;;;;;;;;;;-0.15;100.00;101762.91;4966756;28;20066;-74
2022/01/10 06:37:05;;;;;;;;;;;;;;;-0.13;100.00;101768.97;4967846;28;20024;-75
2022/01/10 06:39:30;;;;;;;;;;;;;;;-0.12;100.00;101774.91;4966183;28;20006;-74
2022/01/10 06:41:55;;;;;;;;;;;;;;;-0.11;100.00;101775.06;4968718;28;19922;-74
2022/01/10 06:44:21;;;;;;;;;;;;;;;-0.10;100.00;101773.44;4967441;28;19930;-74
2022/01/10 06:46:46;;;;;;;;;;;;;;;-0.06;100.00;101780.50;4984633;28;19983;-74
2022/01/10 06:49:11;;;;;;;;;;;;;;;-0.07;100.00;101777.09;4966898;28;20072;-74
2022/01/10 06:51:37;;;;;;;;;;;;;;;-0.05;100.00;101772.19;4965455;28;19926;-74
2022/01/10 06:54:02;;;;;;;;;;;;;;;-0.07;100.00;101784.66;4964883;28;19930;-73
2022/01/10 06:56:27;;;;;;;;;;;;;;;-0.09;100.00;101798.84;4964227;28;20396;-73
2022/01/10 06:58:53;;;;;;;;;;;;;;;-0.09;100.00;101796.31;4959863;28;20376;-73
2022/01/10 07:01:20;;;;;;;;;;;;;;;-0.10;100.00;101801.25;4967294;28;19936;-74
2022/01/10 07:03:45;;;;;;;;;;;;;;;-0.09;100.00;101808.06;4982465;28;19962;-74
2022/01/10 07:06:10;;;;;;;;;;;;;;;-0.11;100.00;101809.59;4967665;28;19922;-74
2022/01/10 07:08:35;;;;;;;;;;;;;;;-0.10;100.00;101824.00;4973081;28;19930;-73
2022/01/10 07:11:01;;;;;;;;;;;;;;;-0.10;100.00;101829.06;4967325;28;19980;-74
2022/01/10 07:13:26;;;;;;;;;;;;;;;-0.10;100.00;101827.41;4966502;28;19930;-74
2022/01/10 07:15:52;;;;;;;;;;;;;;;-0.09;100.00;101834.22;4966701;28;19957;-73
2022/01/10 07:18:17;;;;;;;;;;;;;;;-0.08;100.00;101832.59;4967338;28;19952;-73
2022/01/10 07:20:43;;;;;;;;;;;;;;;-0.08;100.00;101836.00;4963834;28;19929;-73
2022/01/10 07:23:08;;;;;;;;;;;;;;;-0.09;100.00;101856.09;4970272;28;20351;-74
2022/01/10 07:25:35;;;;;;;;;;;;;;;-0.09;100.00;101866.22;4984602;28;21503;-73
2022/01/10 07:28:00;;;;;;;;;;;;;;;-0.09;100.00;101871.25;4963563;28;19934;-73
2022/01/10 07:30:25;;;;;;;;;;;;;;;-0.06;100.00;101866.47;4963598;28;19985;-73
2022/01/10 07:32:51;;;;;;;;;;;;;;;-0.06;100.00;101871.50;4967203;28;20387;-74
2022/01/10 07:35:16;;;;;;;;;;;;;;;-0.04;100.00;101882.66;4965417;28;19930;-74
2022/01/10 07:37:41;;;;;;;;;;;;;;;-0.08;100.00;101886.56;4967775;28;20012;-74
2022/01/10 07:40:07;;;;;;;;;;;;;;;-0.08;100.00;101885.69;4965795;28;19977;-72
2022/01/10 07:42:33;;;;;;;;;;;;;;;-0.12;100.00;101896.25;4978712;28;20197;-73
2022/01/10 07:44:59;;;;;;;;;;;;;;;-0.16;100.00;101900.19;4976782;28;20020;-72
2022/01/10 07:47:24;;;;;;;;;;;;;;;-0.19;100.00;101910.00;4977114;28;20380;-71
2022/01/10 07:49:51;;;;;;;;;;;;;;;-0.18;100.00;101913.44;4964802;28;19930;-71
2022/01/10 07:52:16;;;;;;;;;;;;;;;-0.19;100.00;101924.28;4964993;28;20383;-72
2022/01/10 07:54:44;;;;;;;;;;;;;;;-0.18;100.00;101928.59;4964933;28;19989;-72
2022/01/10 07:57:09;;;;;;;;;;;;;;;-0.18;100.00;101921.94;4984970;28;19914;-72
2022/01/10 07:59:36;;;;;;;;;;;;;;;-0.18;100.00;101929.50;4969377;28;19981;-73
2022/01/10 08:02:01;;;;;;;;;;;;;;;-0.20;100.00;101945.28;4963970;28;20419;-74
2022/01/10 08:04:26;;;;;;;;;;;;;;;-0.23;100.00;101947.56;4968391;28;19972;-72
2022/01/10 08:06:51;;;;;;;;;;;;;;;-0.25;100.00;101954.97;4963927;28;19977;-72
2022/01/10 08:09:17;;;;;;;;;;;;;;;-0.25;100.00;101964.19;4963614;28;19922;-73
2022/01/10 08:11:42;;;;;;;;;;;;;;;-0.23;100.00;101960.19;4964724;28;19926;-73
2022/01/10 08:14:08;;;;;;;;;;;;;;;-0.25;100.00;101970.13;4964491;28;19973;-74
2022/01/10 08:16:33;;;;;;;;;;;;;;;-0.27;100.00;101977.59;4967194;28;19922;-75
2022/01/10 08:18:58;;;;;;;;;;;;;;;-0.27;100.00;101976.72;4961699;28;20368;-73
2022/01/10 08:21:24;;;;;;;;;;;;;;;-0.26;100.00;101988.59;4966342;28;19926;-74
2022/01/10 08:23:49;;;;;;;;;;;;;;;-0.24;100.00;101991.25;4971414;28;20328;-73
2022/01/10 08:26:14;;;;;;;;;;;;;;;-0.22;100.00;101989.75;4963920;28;19961;-74
2022/01/10 08:28:40;;;;;;;;;;;;;;;-0.20;100.00;101996.72;4964951;28;19976;-74
2022/01/10 08:31:05;;;;;;;;;;;;;;;-0.18;100.00;101996.84;4966203;28;19918;-73
2022/01/10 08:33:31;;;;;;;;;;;;;;;-0.15;100.00;102004.72;4964850;28;19922;-74
2022/01/10 08:35:57;;;;;;;;;;;;;;;-0.08;100.00;102012.09;4964800;28;20060;-72
2022/01/10 08:38:22;;;;;;;;;;;;;;;0.02;100.00;102022.28;4965086;28;19926;-74
2022/01/10 08:40:49;;;;;;;;;;;;;;;0.14;100.00;102030.06;4962792;28;19929;-74
2022/01/10 08:43:16;;;;;;;;;;;;;;;0.28;100.00;102031.25;4962689;28;20288;-74
2022/01/10 08:45:41;;;;;;;;;;;;;;;0.44;100.00;102040.34;4964530;28;20295;-74
2022/01/10 08:48:07;;;;;;;;;;;;;;;0.53;100.00;102043.66;4964504;28;19928;-73
2022/01/10 08:50:33;;;;;;;;;;;;;;;0.62;100.00;102045.22;4959957;28;20391;-73
2022/01/10 08:52:59;;;;;;;;;;;;;;;0.69;100.00;102063.59;4964736;28;19962;-73
2022/01/10 08:55:24;;;;;;;;;;;;;;;0.75;100.00;102060.72;4964834;28;20012;-75
2022/01/10 08:57:50;;;;;;;;;;;;;;;0.80;100.00;102060.34;4956512;28;20083;-74
2022/01/10 09:00:15;;;;;;;;;;;;;;;0.79;100.00;102067.81;4962455;28;19926;-73
2022/01/10 09:02:40;;;;;;;;;;;;;;;0.82;100.00;102074.78;4965181;28;19918;-73
2022/01/10 09:05:06;;;;;;;;;;;;;;;0.86;100.00;102071.78;4966180;28;20427;-74
2022/01/10 09:07:31;;;;;;;;;;;;;;;0.93;100.00;102076.59;4949250;28;19922;-73
2022/01/10 09:09:56;;;;;;;;;;;;;;;1.02;100.00;102080.78;4962469;28;20016;-72
2022/01/10 09:12:22;;;;;;;;;;;;;;;1.10;100.00;102078.06;4962594;28;19918;-71
2022/01/10 09:14:47;;;;;;;;;;;;;;;1.15;100.00;102081.84;4966708;28;19926;-73
2022/01/10 09:17:12;;;;;;;;;;;;;;;1.19;100.00;102088.94;4965421;28;19922;-73
2022/01/10 09:19:38;;;;;;;;;;;;;;;1.22;100.00;102091.75;4951975;28;19930;-73
2022/01/10 09:22:03;;;;;;;;;;;;;;;1.26;100.00;102097.19;4973348;28;19930;-75
2022/01/10 09:24:29;;;;;;;;;;;;;;;1.31;100.00;102101.00;4965280;28;19922;-73
2022/01/10 09:26:54;;;;;;;;;;;;;;;1.30;100.00;102095.81;4960762;28;19922;-73
2022/01/10 09:29:19;;;;;;;;;;;;;;;1.32;100.00;102101.91;4971046;28;19934;-73
2022/01/10 09:31:45;;;;;;;;;;;;;;;1.41;100.00;102101.81;4963737;28;20473;-73
2022/01/10 09:34:10;;;;;;;;;;;;;;;1.45;100.00;102104.69;4960070;28;19953;-73
2022/01/10 09:36:36;;;;;;;;;;;;;;;1.58;100.00;102106.66;4964414;28;19964;-74
2022/01/10 09:39:02;;;;;;;;;;;;;;;1.64;100.00;102104.63;4961583;28;19923;-73
2022/01/10 09:41:28;;;;;;;;;;;;;;;1.75;100.00;102110.56;4960645;28;19922;-74
2022/01/10 09:43:56;;;;;;;;;;;;;;;1.88;100.00;102110.81;4965649;28;19930;-75
2022/01/10 09:46:22;;;;;;;;;;;;;;;2.02;100.00;102117.03;4961208;28;19925;-75
2022/01/10 09:48:47;;;;;;;;;;;;;;;2.22;100.00;102111.06;4961509;28;19928;-73
2022/01/10 09:51:13;;;;;;;;;;;;;;;2.71;100.00;102115.88;4951452;28;20348;-75
2022/01/10 09:53:38;;;;;;;;;;;;;;;3.29;100.00;102122.09;4982260;28;19923;-74
2022/01/10 09:56:03;;;;;;;;;;;;;;;3.51;100.00;102125.50;4962088;28;19922;-76
2022/01/10 09:58:29;;;;;;;;;;;;;;;3.70;100.00;102127.78;4979673;28;20272;-74
2022/01/10 10:00:55;;;;;;;;;;;;;;;4.04;100.00;102138.84;4967715;28;19918;-73
2022/01/10 10:03:22;;;;;;;;;;;;;;;5.04;100.00;102136.78;4966547;28;19999;-73
2022/01/10 10:05:50;;;;;;;;;;;;;;;5.42;100.00;102153.88;4965283;28;19922;-75
2022/01/10 10:08:16;;;;;;;;;;;;;;;5.71;99.72;102153.34;4982260;28;20334;-74
2022/01/10 10:10:41;;;;;;;;;;;;;;;6.01;94.97;102160.53;4966136;28;19922;-73
2022/01/10 10:13:06;;;;;;;;;;;;;;;6.31;87.23;102165.88;4967558;28;19929;-74
2022/01/10 10:15:35;;;;;;;;;;;;;;;6.06;91.35;102165.94;4967165;28;19922;-74
2022/01/10 10:18:00;;;;;;;;;;;;;;;5.88;91.02;102173.19;4966517;28;19918;-74
2022/01/10 10:20:25;;;;;;;;;;;;;;;5.93;94.75;102181.22;4964196;28;19935;-74
2022/01/10 10:22:53;;;;;;;;;;;;;;;5.97;93.99;102181.53;4964684;28;19970;-73
2022/01/10 10:25:19;;;;;;;;;;;;;;;6.25;95.23;102185.91;4967934;28;20483;-75
2022/01/10 10:27:45;;;;;;;;;;;;;;;7.64;88.44;102192.25;4982982;28;20005;-73
2022/01/10 10:30:21;;;;;;;;;;;;;;;8.89;84.98;102191.06;4965171;28;19926;-75
2022/01/10 10:32:48;;;;;;;;;;;;;;;9.81;84.02;102189.22;4969877;28;20387;-75
2022/01/10 10:35:14;;;;;;;;;;;;;;;9.82;79.13;102196.13;4967405;28;20029;-75
2022/01/10 10:37:42;;;;;;;;;;;;;;;9.30;83.72;102196.81;4968564;28;19922;-74
2022/01/10 10:40:10;;;;;;;;;;;;;;;8.64;81.18;102206.75;4965062;28;19957;-74
2022/01/10 10:42:38;;;;;;;;;;;;;;;8.69;84.07;102210.47;4963621;28;20391;-74
2022/01/10 10:45:06;;;;;;;;;;;;;;;10.17;79.02;102205.66;4966268;28;19929;-76
2022/01/10 10:47:35;;;;;;;;;;;;;;;10.34;73.71;102204.84;4964311;28;20363;-75
2022/01/10 10:50:01;;;;;;;;;;;;;;;10.60;72.67;102200.13;4967114;28;20371;-74
2022/01/10 10:52:33;;;;;;;;;;;;;;;11.45;73.30;102211.03;4963720;28;19918;-75
2022/01/10 10:55:06;;;;;;;;;;;;;;;12.22;72.24;102220.50;4964572;28;19958;-74
2022/01/10 10:57:32;;;;;;;;;;;;;;;12.64;72.35;102213.69;4963764;28;20013;-75
2022/01/10 10:59:59;;;;;;;;;;;;;;;13.08;68.24;102212.88;4970326;28;20004;-74
2022/01/10 11:02:24;;;;;;;;;;;;;;;13.88;63.81;102227.13;4969299;28;19922;-75
2022/01/10 11:04:50;;;;;;;;;;;;;;;14.36;64.98;102234.88;4965549;28;19922;-75
2022/01/10 11:07:16;;;;;;;;;;;;;;;15.12;53.86;102226.19;4967281;28;19938;-74
2022/01/10 11:09:42;;;;;;;;;;;;;;;15.47;59.30;102234.13;4973628;28;19922;-74
2022/01/10 11:12:07;;;;;;;;;;;;;;;16.04;59.27;102234.97;4969698;28;20409;-75
2022/01/10 11:14:33;;;;;;;;;;;;;;;16.22;53.11;102232.00;4970743;28;19930;-73
2022/01/10 11:16:58;;;;;;;;;;;;;;;16.69;57.81;102236.66;4970776;28;20383;-76
2022/01/10 11:19:26;;;;;;;;;;;;;;;17.14;55.19;102232.56;4969934;28;19949;-75
2022/01/10 11:22:13;;;;;;;;;;;;;;;17.21;52.30;102251.78;4967612;28;20298;-75
2022/01/10 11:24:54;;;;;;;;;;;;;;;16.55;50.75;102239.75;4967663;28;20356;-74
2022/01/10 11:27:33;;;;;;;;;;;;;;;15.53;55.82;102247.28;4966171;28;20021;-75
2022/01/10 11:29:59;;;;;;;;;;;;;;;15.77;55.32;102242.88;4970053;28;19961;-75
2022/01/10 11:32:43;;;;;;;;;;;;;;;15.53;50.67;102247.28;4964611;28;19961;-76
2022/01/10 11:35:09;;;;;;;;;;;;;;;15.64;52.47;102250.22;4971988;28;19933;-75
2022/01/10 11:37:35;;;;;;;;;;;;;;;15.82;52.53;102256.81;4969751;28;19930;-75
2022/01/10 11:40:00;;;;;;;;;;;;;;;15.53;49.91;102261.16;4967477;28;19919;-75
2022/01/10 11:42:26;;;;;;;;;;;;;;;14.12;54.03;102267.63;4963663;28;19965;-75
2022/01/10 11:45:07;;;;;;;;;;;;;;;12.51;55.62;102265.63;4969913;28;19922;-75
2022/01/10 11:47:52;;;;;;;;;;;;;;;11.11;60.41;102266.13;4963358;28;19918;-74
2022/01/10 11:50:25;;;;;;;;;;;;;;;9.93;63.97;102277.22;4968394;28;19929;-75
2022/01/10 11:52:54;;;;;;;;;;;;;;;9.17;65.91;102285.88;4967221;28;19918;-75
2022/01/10 11:55:28;;;;;;;;;;;;;;;8.37;66.19;102281.25;4978992;28;20002;-74
2022/01/10 11:58:01;;;;;;;;;;;;;;;8.09;68.68;102288.94;4967125;28;20438;-73
2022/01/10 12:00:34;;;;;;;;;;;;;;;7.64;70.68;102294.66;4965227;28;20299;-75
2022/01/10 12:02:59;;;;;;;;;;;;;;;7.42;71.32;102297.56;4967344;28;19918;-75
2022/01/10 12:05:25;;;;;;;;;;;;;;;7.22;73.01;102297.16;4967476;28;20235;-74
2022/01/10 12:07:51;;;;;;;;;;;;;;;7.18;73.74;102305.41;4966585;28;19957;-75
2022/01/10 12:10:17;;;;;;;;;;;;;;;7.13;74.11;102313.59;4968784;28;19926;-75
2022/01/10 12:12:42;;;;;;;;;;;;;;;6.97;74.04;102304.00;4967968;28;19930;-74
2022/01/10 12:15:08;;;;;;;;;;;;;;;6.91;75.47;102306.16;4968653;28;19925;-75
2022/01/10 12:17:35;;;;;;;;;;;;;;;6.97;75.18;102312.56;4968835;28;19968;-75
2022/01/10 12:20:02;;;;;;;;;;;;;;;6.96;75.80;102315.91;4970482;28;19922;-75
2022/01/10 12:22:27;;;;;;;;;;;;;;;6.86;75.24;102321.22;4967125;28;19923;-74
2022/01/10 12:24:53;;;;;;;;;;;;;;;6.72;76.91;102319.41;4969038;28;19925;-75
2022/01/10 12:27:18;;;;;;;;;;;;;;;6.62;77.26;102327.25;4970288;28;19944;-75
2022/01/10 12:29:44;;;;;;;;;;;;;;;6.61;77.58;102328.94;4969223;28;19918;-74
2022/01/10 12:32:11;;;;;;;;;;;;;;;6.51;78.25;102326.53;4969784;28;20295;-74
2022/01/10 12:34:38;;;;;;;;;;;;;;;6.56;77.75;102331.97;4965297;28;20363;-74
2022/01/10 12:37:04;;;;;;;;;;;;;;;6.54;78.38;102338.63;4969167;28;19949;-74